KFOE/FOE METAR and TAF weather

Enter ICAO airport designator
Station Type Date Time Source
KFOE METAR 2019/08/26 07:08 UTC NOAA

KFOE 260708Z AUTO 00000KT 1/2SM FG VV002 20/18 A2980 RMK AO2 T02000183 RVRNO


Station Type Date Time Source
KFOE Decoded METAR 2019/08/26 07:08 UTC NOAA

Station name not available
Aug 26, 2019 - 03:08 AM EDT / 2019.08.26 0708 UTC
Wind: Calm:0
Visibility: 1/2 mile(s):0
Sky conditions: obscured
Weather: fog
Temperature: 68.0 F (20.0 C)
Dew Point: 64.9 F (18.3 C)
Relative Humidity: 89%
Pressure (altimeter): 29.8 in. Hg (1009 hPa)
ob: KFOE 260708Z AUTO 00000KT 1/2SM FG VV002 20/18 A2980 RMK AO2 T02000183 RVRNO
cycle: 7

Station Type Date Time Source
KFOE TAF 2019/08/26 07:03 UTC NOAA

TAF
AMD KFOE 260700Z 2607/2706 00000KT 3SM BR BKN003
FM261200 12006KT 6SM BR VCSH OVC005
FM261700 17010KT P6SM SCT010 BKN020
FM262100 18011KT P6SM VCTS BKN025CB
FM270000 33013G22KT P6SM SCT070

Example: see airport list